Flight Track Log - Related Links

Times and Time Zones

All times are in EDT time to prevent confusion due to time zone crossing. See the ELY351 flight status page for this flight to view local times or setup timezone preferences in your user account.

Time Position Orientation Groundspeed Altitude Reporting Facility
EDT Latitude Longitude Course Direction KTS MPH feet Rate Location/Type
Sun 11:52:58 PM 31.9960 34.7780 52° Northeast 197 227 3,500  Level FlightAware ADS-B
Sun 11:53:23 PM 32.0000 34.7490 279° West 217 250 4,100 1,355 Climbing FlightAware ADS-B
Sun 11:53:29 PM 32.0020 34.7410 286° West 235 270 4,200 1,000 Climbing FlightAware ADS-B
Sun 11:53:35 PM 32.0030 34.7370 286° West 239 275 4,300 2,000 Climbing FlightAware ADS-B
Sun 11:53:47 PM 32.0080 34.7180 287° West 254 292 4,800 2,000 Climbing FlightAware ADS-B
Sun 11:53:53 PM 32.0090 34.7110 280° West 259 298 4,900 1,000 Climbing FlightAware ADS-B
Sun 11:53:59 PM 32.0110 34.7050 291° West 270 311 5,000 2,000 Climbing FlightAware ADS-B
Sun 11:54:05 PM 32.0140 34.6930 286° West 272 313 5,300 3,000 Climbing FlightAware ADS-B
Sun 11:54:15 PM 32.0170 34.6790 284° West 278 320 5,800 2,625 Climbing FlightAware ADS-B
Sun 11:54:21 PM 32.0180 34.6740 283° West 278 320 6,000 1,846 Climbing FlightAware ADS-B
Sun 11:54:41 PM 32.0260 34.6370 284° West 303 349 6,600 808 Climbing FlightAware ADS-B
Sun 11:55:13 PM 32.0310 34.5930 278° West 312 359 6,700 2,387 Climbing FlightAware ADS-B
Sun 11:57:00 PM 32.2023 34.4727 329° Northwest  Level Estimated
Sun 11:58:00 PM 32.2983 34.4051 329° Northwest  Level Estimated
Sun 11:59:00 PM 32.3942 34.3373 329° Northwest  Level Estimated
Sun 11:59:25 PM 32.1100 34.1010 329° Northwest 386 444 17,900  Level FlightAware ADS-B
Sun 11:59:58 PM 32.1400 34.0390 300° West 393 452 19,000 1,886 Climbing FlightAware ADS-B
Mon 12:00:35 AM 32.1730 33.9700 299° West 398 458 20,100 1,886 Climbing FlightAware ADS-B
Mon 12:01:08 AM 32.2030 33.9080 300° West 401 461 21,200 1,941 Climbing FlightAware ADS-B
Mon 12:01:43 AM 32.2340 33.8400 298° West 405 466 22,300 1,800 Climbing FlightAware ADS-B
Mon 12:02:18 AM 32.2670 33.7710 300° West 408 470 23,300 1,690 Climbing FlightAware ADS-B
Mon 12:02:54 AM 32.3000 33.7020 300° West 410 472 24,300 1,658 Climbing FlightAware ADS-B
Mon 12:03:34 AM 32.3380 33.6220 299° West 414 476 25,400 1,562 Climbing FlightAware ADS-B
Mon 12:04:07 AM 32.3690 33.5560 299° West 416 479 26,200 1,378 Climbing FlightAware ADS-B
Mon 12:04:48 AM 32.4070 33.4750 299° West 420 483 27,100 1,217 Climbing FlightAware ADS-B
Mon 12:05:16 AM 32.4330 33.4180 298° West 424 488 27,600 1,114 Climbing FlightAware ADS-B
Mon 12:05:58 AM 32.4730 33.3330 299° West 429 494 28,400 1,135 Climbing FlightAware ADS-B
Mon 12:06:30 AM 32.5050 33.2660 300° West 431 496 29,000 1,391 Climbing FlightAware ADS-B
Mon 12:07:07 AM 32.5400 33.1900 299° West 426 490 30,000 1,565 Climbing FlightAware ADS-B
Mon 12:07:39 AM 32.5710 33.1250 300° West 423 487 30,800 1,391 Climbing FlightAware ADS-B
Mon 12:08:16 AM 32.6050 33.0510 299° West 420 483 31,600 1,286 Climbing FlightAware ADS-B
Mon 12:08:49 AM 32.6350 32.9860 299° West 413 475 32,300 904 Climbing FlightAware ADS-B
Mon 12:09:29 AM 32.6670 32.9140 298° West 411 473 32,700 1,099 Climbing FlightAware ADS-B
Mon 12:10:00 AM 32.6970 32.8530 300° West 410 472 33,600 794 Climbing FlightAware ADS-B
Mon 12:10:37 AM 32.7240 32.7900 297° West 410 472 33,600 338 Level FlightAware ADS-B
Mon 12:11:11 AM 32.7630 32.7080 300° West 406 467 34,000 316 Climbing FlightAware ADS-B
Mon 12:11:53 AM 32.7960 32.6370 299° West 406 467 34,000  Level FlightAware ADS-B
Mon 12:12:26 AM 32.8310 32.5620 299° West 407 468 34,000  Level FlightAware ADS-B
Mon 12:13:05 AM 32.8700 32.4850 301° West 414 476 34,000  Level FlightAware ADS-B
Mon 12:13:36 AM 32.9090 32.4320 311° West 417 480 34,000  Level FlightAware ADS-B
Mon 12:14:11 AM 32.9590 32.3720 315° West 418 481 34,000  Level FlightAware ADS-B
Mon 12:14:46 AM 33.0060 32.3160 315° West 417 480 34,000  Level FlightAware ADS-B
Mon 12:15:22 AM 33.0550 32.2550 314° West 421 484 34,000  Level FlightAware ADS-B
Mon 12:15:58 AM 33.1030 32.1970 315° West 422 486 34,000  Level FlightAware ADS-B
Mon 12:16:33 AM 33.1530 32.1360 314° West 422 486 34,000  Level FlightAware ADS-B
Mon 12:17:04 AM 33.1920 32.0880 314° West 422 486 34,000  Level FlightAware ADS-B
Mon 12:17:43 AM 33.2470 32.0200 314° West 422 486 34,000  Level FlightAware ADS-B
Mon 12:18:19 AM 33.2890 31.9690 315° West 417 480 34,000  Level FlightAware ADS-B
Mon 12:18:49 AM 33.3380 31.9100 315° West 422 486 34,000  Level FlightAware ADS-B
Mon 12:19:24 AM 33.3860 31.8510 314° West 418 481 34,000  Level FlightAware ADS-B
Mon 12:20:05 AM 33.4420 31.7820 314° West 418 481 34,000  Level FlightAware ADS-B
Mon 12:20:35 AM 33.4810 31.7330 314° West 418 481 34,000  Level FlightAware ADS-B
Mon 12:21:11 AM 33.5310 31.6710 314° West 420 483 34,000  Level FlightAware ADS-B
Mon 12:21:45 AM 33.5760 31.6150 314° West 420 483 34,000  Level FlightAware ADS-B
Mon 12:22:20 AM 33.6260 31.5540 315° West 422 486 34,000  Level FlightAware ADS-B
Mon 12:22:56 AM 33.6750 31.4940 314° West 423 487 34,000  Level FlightAware ADS-B
Mon 12:23:31 AM 33.7230 31.4340 314° West 424 488 34,000  Level FlightAware ADS-B
Mon 12:24:07 AM 33.7740 31.3710 314° West 424 488 34,000 91 Level FlightAware ADS-B
Mon 12:24:37 AM 33.8150 31.3180 313° West 424 488 34,100 771 Climbing FlightAware ADS-B
Mon 12:25:17 AM 33.8710 31.2490 314° West 421 484 34,900 1,105 Climbing FlightAware ADS-B
Mon 12:25:53 AM 33.9190 31.1890 314° West 423 487 35,500 896 Climbing FlightAware ADS-B
Mon 12:26:24 AM 33.9600 31.1370 314° West 422 486 35,900 423 Climbing FlightAware ADS-B
Mon 12:27:04 AM 34.0070 31.0780 314° West 423 487 36,000 78 Climbing FlightAware ADS-B
Mon 12:27:41 AM 34.0490 31.0230 313° West 423 487 36,000  Level FlightAware ADS-B
Mon 12:28:27 AM 34.1290 30.9250 315° West 424 488 36,000  Level FlightAware ADS-B
Mon 12:29:03 AM 34.1770 30.8650 314° West 425 489 36,000  Level FlightAware ADS-B
Mon 12:29:33 AM 34.2200 30.8120 314° West 426 490 36,000  Level FlightAware ADS-B
Mon 12:30:09 AM 34.2680 30.7530 315° West 427 491 36,000  Level FlightAware ADS-B
Mon 12:30:48 AM 34.3250 30.6810 314° West 424 488 36,000  Level FlightAware ADS-B
Mon 12:31:19 AM 34.3670 30.6300 315° West 425 489 36,000  Level FlightAware ADS-B
Mon 12:31:54 AM 34.4150 30.5700 314° West 431 496 36,000  Level FlightAware ADS-B
Mon 12:32:30 AM 34.4650 30.5100 315° West 425 489 36,000  Level FlightAware ADS-B
Mon 12:33:04 AM 34.5100 30.4530 314° West 426 490 36,000  Level FlightAware ADS-B
Mon 12:33:39 AM 34.5630 30.3860 314° West 426 490 36,000  Level FlightAware ADS-B
Mon 12:34:14 AM 34.6090 30.3290 314° West 425 489 36,000  Level FlightAware ADS-B
Mon 12:35:00 AM 34.6710 30.2500 314° West 425 489 36,000  Level FlightAware ADS-B
Mon 12:35:39 AM 34.7250 30.1820 314° West 425 489 36,000  Level FlightAware ADS-B
Mon 12:36:23 AM 34.7760 30.1160 313° West 425 489 36,000  Level FlightAware ADS-B
Mon 12:36:59 AM 34.8170 30.0630 313° West 425 489 36,000  Level FlightAware ADS-B
Mon 12:37:36 AM 34.8590 30.0080 313° West 425 489 36,000  Level FlightAware ADS-B
Mon 12:38:12 AM 34.9000 29.9540 313° West 425 489 36,000  Level FlightAware ADS-B
Mon 12:38:58 AM 35.0030 29.8310 316° Northwest 430 495 36,000  Level FlightAware ADS-B
Mon 12:39:44 AM 35.0680 29.7480 314° West 430 495 36,000  Level FlightAware ADS-B
Mon 12:40:22 AM 35.1190 29.6830 314° West 430 495 36,000  Level FlightAware ADS-B
Mon 12:40:54 AM 35.1640 29.6250 314° West 430 495 36,000  Level FlightAware ADS-B
Mon 12:41:30 AM 35.2130 29.5620 314° West 430 495 36,000  Level FlightAware ADS-B
Mon 12:42:06 AM 35.2620 29.4990 314° West 430 495 36,000  Level FlightAware ADS-B
Mon 12:42:42 AM 35.3110 29.4360 314° West 430 495 36,000  Level FlightAware ADS-B
Mon 12:43:14 AM 35.3550 29.3790 313° West 430 495 36,000  Level FlightAware ADS-B
Mon 12:43:50 AM 35.4050 29.3140 313° West 431 496 36,000  Level FlightAware ADS-B
Mon 12:44:26 AM 35.4540 29.2520 314° West 430 495 36,000  Level FlightAware ADS-B
Mon 12:45:02 AM 35.5020 29.1890 313° West 430 495 36,000  Level FlightAware ADS-B
Mon 12:45:36 AM 35.5500 29.1270 314° West 430 495 36,000  Level FlightAware ADS-B
Mon 12:46:12 AM 35.5980 29.0630 313° West 429 494 36,000  Level FlightAware ADS-B
Mon 12:46:47 AM 35.6460 29.0020 314° West 429 494 36,000  Level FlightAware ADS-B
Mon 12:47:20 AM 35.6920 28.9420 313° West 428 493 36,000  Level FlightAware ADS-B
Mon 12:47:56 AM 35.7410 28.8780 313° West 428 493 36,000  Level FlightAware ADS-B
Mon 12:48:32 AM 35.7890 28.8140 313° West 428 493 36,000  Level FlightAware ADS-B
Mon 12:50:16 AM 35.9280 28.6300 313° West 427 491 36,000  Level FlightAware ADS-B
Mon 12:51:20 AM 36.0160 28.5150 313° West 430 495 36,000  Level FlightAware ADS-B
Mon 12:51:52 AM 36.0600 28.4560 313° West 432 497 36,000  Level FlightAware ADS-B
Mon 12:52:30 AM 36.1100 28.3890 313° West 433 498 36,000  Level FlightAware ADS-B
Mon 12:53:02 AM 36.1540 28.3320 314° West 433 498 36,000  Level FlightAware ADS-B
Mon 12:53:38 AM 36.2040 28.2640 312° West 433 498 36,000  Level FlightAware ADS-B
Mon 12:54:12 AM 36.2490 28.2040 313° West 435 501 36,000  Level FlightAware ADS-B
Mon 12:54:48 AM 36.2990 28.1370 313° West 435 501 36,000  Level FlightAware ADS-B
Mon 12:55:24 AM 36.3480 28.0730 314° West 437 503 36,000  Level FlightAware ADS-B
Mon 12:56:00 AM 36.4020 28.0100 317° Northwest 439 505 36,000  Level FlightAware ADS-B
Mon 12:56:32 AM 36.4500 27.9550 317° Northwest 439 505 36,000  Level FlightAware ADS-B
Mon 12:57:10 AM 36.5030 27.8930 317° Northwest 439 505 36,000  Level FlightAware ADS-B
Mon 12:57:42 AM 36.5530 27.8360 318° Northwest 438 504 36,000  Level FlightAware ADS-B
Mon 12:58:22 AM 36.6120 27.7670 317° Northwest 437 503 36,000  Level FlightAware ADS-B
Mon 12:58:54 AM 36.6600 27.7120 317° Northwest 437 503 36,000  Level FlightAware ADS-B
Mon 12:59:28 AM 36.7110 27.6520 317° Northwest 436 502 36,000  Level FlightAware ADS-B
Mon 01:00:00 AM 36.7550 27.6000 317° Northwest 436 502 36,000  Level FlightAware ADS-B
Mon 01:00:38 AM 36.8100 27.5360 317° Northwest 435 501 36,000  Level FlightAware ADS-B
Mon 01:01:16 AM 36.8660 27.4700 317° Northwest 435 501 36,000  Level FlightAware ADS-B
Mon 01:01:49 AM 36.9150 27.4120 317° Northwest 435 501 36,000  Level FlightAware ADS-B
Mon 01:02:25 AM 36.9690 27.3500 317° Northwest 435 501 36,000  Level FlightAware ADS-B
Mon 01:03:02 AM 37.0230 27.2860 317° Northwest 433 498 36,000  Level FlightAware ADS-B
Mon 01:03:34 AM 37.0700 27.2300 316° Northwest 432 497 36,000  Level FlightAware ADS-B
Mon 01:04:10 AM 37.1220 27.1680 316° Northwest 432 497 36,000  Level FlightAware ADS-B
Mon 01:04:46 AM 37.1750 27.1050 317° Northwest 431 496 36,000  Level FlightAware ADS-B
Mon 01:05:18 AM 37.2210 27.0510 317° Northwest 431 496 36,000  Level FlightAware ADS-B
Mon 01:05:55 AM 37.2730 26.9880 316° Northwest 430 495 36,000  Level FlightAware ADS-B
Mon 01:06:30 AM 37.3250 26.9260 317° Northwest 430 495 36,000  Level FlightAware ADS-B
Mon 01:07:03 AM 37.3720 26.8710 317° Northwest 431 496 36,000  Level FlightAware ADS-B
Mon 01:07:39 AM 37.4250 26.8100 318° Northwest 433 498 36,000  Level FlightAware ADS-B
Mon 01:08:16 AM 37.4810 26.7490 319° Northwest 433 498 36,000  Level FlightAware ADS-B
Mon 01:08:48 AM 37.5300 26.6960 319° Northwest 433 498 36,000  Level FlightAware ADS-B
Mon 01:09:24 AM 37.5850 26.6370 320° Northwest 433 498 36,000  Level FlightAware ADS-B
Mon 01:10:00 AM 37.6400 26.5780 320° Northwest 433 498 36,000  Level FlightAware ADS-B
Mon 01:10:34 AM 37.6920 26.5220 320° Northwest 433 498 36,000  Level FlightAware ADS-B
Mon 01:11:25 AM 37.7530 26.4550 319° Northwest 432 497 36,000  Level FlightAware ADS-B
Mon 01:11:57 AM 37.8160 26.3860 319° Northwest 431 496 36,000  Level FlightAware ADS-B
Mon 01:12:32 AM 37.8690 26.3280 319° Northwest 432 497 36,000  Level FlightAware ADS-B
Mon 01:13:08 AM 37.9240 26.2680 319° Northwest 433 498 36,000  Level FlightAware ADS-B
Mon 01:13:46 AM 37.9820 26.2040 319° Northwest 433 498 36,000  Level FlightAware ADS-B
Mon 01:14:18 AM 38.0300 26.1510 319° Northwest 433 498 36,000  Level FlightAware ADS-B
Mon 01:14:54 AM 38.0840 26.0910 319° Northwest 433 498 36,000  Level FlightAware ADS-B
Mon 01:15:30 AM 38.1390 26.0310 319° Northwest 433 498 36,000  Level FlightAware ADS-B
Mon 01:16:03 AM 38.1880 25.9770 319° Northwest 433 498 36,000  Level FlightAware ADS-B
Mon 01:16:37 AM 38.2390 25.9200 319° Northwest 432 497 36,000  Level FlightAware ADS-B
Mon 01:17:09 AM 38.2890 25.8700 322° Northwest 434 499 36,000  Level FlightAware ADS-B
Mon 01:17:51 AM 38.3580 25.8050 324° Northwest 436 502 36,000  Level FlightAware ADS-B
Mon 01:18:22 AM 38.4120 25.7660 330° Northwest 437 503 36,000  Level FlightAware ADS-B
Mon 01:18:58 AM 38.4730 25.7210 330° Northwest 436 502 36,000  Level FlightAware ADS-B
Mon 01:19:34 AM 38.5380 25.6730 330° Northwest 434 499 36,000  Level FlightAware ADS-B
Mon 01:20:23 AM 38.6230 25.6100 330° Northwest 433 498 36,000  Level FlightAware ADS-B
Mon 01:20:59 AM 38.6830 25.5660 330° Northwest 433 498 36,000  Level FlightAware ADS-B
Mon 01:21:32 AM 38.7330 25.5280 329° Northwest 433 498 36,000  Level FlightAware ADS-B
Mon 01:22:08 AM 38.7850 25.4870 328° Northwest 433 498 36,000  Level FlightAware ADS-B
Mon 01:22:45 AM 38.8390 25.4460 329° Northwest 433 498 36,000  Level FlightAware ADS-B
Mon 01:23:21 AM 38.8920 25.4050 329° Northwest 433 498 36,000  Level FlightAware ADS-B
Mon 01:23:57 AM 38.9450 25.3640 329° Northwest 433 498 36,000  Level FlightAware ADS-B
Mon 01:24:34 AM 38.9990 25.3230 329° Northwest 433 498 36,000  Level FlightAware ADS-B
Mon 01:25:10 AM 39.0510 25.2820 329° Northwest 433 498 36,000  Level FlightAware ADS-B
Mon 01:25:44 AM 39.1800 25.1950 332° Northwest 432 497 36,000  Level FlightAware ADS-B
Mon 01:26:20 AM 39.2400 25.1490 329° Northwest 431 496 36,000  Level FlightAware ADS-B
Mon 01:26:58 AM 39.2960 25.1060 329° Northwest 431 496 36,000  Level FlightAware ADS-B
Mon 01:27:34 AM 39.3480 25.0660 329° Northwest 431 496 36,000  Level FlightAware ADS-B
Mon 01:28:10 AM 39.4000 25.0250 329° Northwest 431 496 36,000  Level FlightAware ADS-B
Mon 01:28:46 AM 39.4530 24.9840 329° Northwest 431 496 36,000  Level FlightAware ADS-B
Mon 01:29:22 AM 39.5050 24.9430 329° Northwest 431 496 36,000  Level FlightAware ADS-B
Mon 01:29:59 AM 39.5590 24.9020 330° Northwest 431 496 36,000  Level FlightAware ADS-B
Mon 01:30:35 AM 39.6110 24.8610 329° Northwest 431 496 36,000  Level FlightAware ADS-B
Mon 01:31:11 AM 39.6630 24.8200 329° Northwest 431 496 36,000  Level FlightAware ADS-B
Mon 01:31:47 AM 39.8070 24.7170 331° Northwest 438 504 36,000  Level FlightAware ADS-B
Mon 01:32:22 AM 39.8620 24.6760 330° Northwest 438 504 36,000  Level FlightAware ADS-B
Mon 01:33:02 AM 39.9370 24.6180 329° Northwest 439 505 36,000  Level FlightAware ADS-B
Mon 01:33:32 AM 39.9840 24.5810 329° Northwest 439 505 36,000  Level FlightAware ADS-B
Mon 01:34:07 AM 40.0440 24.5350 330° Northwest 440 506 36,000  Level FlightAware ADS-B
Mon 01:34:42 AM 40.1090 24.4850 330° Northwest 439 505 36,000  Level FlightAware ADS-B
Mon 01:35:17 AM 40.1710 24.4360 329° Northwest 439 505 36,000  Level FlightAware ADS-B
Mon 01:35:52 AM 40.2330 24.3870 329° Northwest 437 503 36,000  Level FlightAware ADS-B
Mon 01:36:32 AM 40.3030 24.3320 329° Northwest 437 503 36,000  Level FlightAware ADS-B
Mon 01:37:02 AM 40.3540 24.2920 329° Northwest 436 502 36,000  Level FlightAware ADS-B
Mon 01:37:37 AM 40.4160 24.2440 329° Northwest 435 501 36,000  Level FlightAware ADS-B
Mon 01:38:12 AM 40.4750 24.1980 329° Northwest 435 501 36,000  Level FlightAware ADS-B
Mon 01:38:47 AM 40.5320 24.1530 329° Northwest 435 501 36,000  Level FlightAware ADS-B
Mon 01:39:22 AM 40.5970 24.1020 329° Northwest 434 499 36,000  Level FlightAware ADS-B
Mon 01:40:02 AM 40.6650 24.0480 329° Northwest 433 498 36,000  Level FlightAware ADS-B
Mon 01:40:32 AM 40.7180 24.0050 328° Northwest 432 497 36,000  Level FlightAware ADS-B
Mon 01:41:07 AM 40.7770 23.9590 329° Northwest 433 498 36,000  Level FlightAware ADS-B
Mon 01:41:42 AM 40.8340 23.9140 329° Northwest 434 499 36,000  Level FlightAware ADS-B
Mon 01:42:17 AM 40.8960 23.8640 329° Northwest 433 498 36,000  Level FlightAware ADS-B
Mon 01:42:52 AM 40.9580 23.8140 329° Northwest 433 498 36,000  Level FlightAware ADS-B
Mon 01:43:27 AM 41.0140 23.7700 329° Northwest 433 498 36,000  Level FlightAware ADS-B
Mon 01:44:02 AM 41.0760 23.7200 329° Northwest 433 498 36,000  Level FlightAware ADS-B
Mon 01:44:42 AM 41.1460 23.6630 328° Northwest 430 495 36,000  Level FlightAware ADS-B
Mon 01:45:12 AM 41.1980 23.6250 331° Northwest 432 497 36,000  Level FlightAware ADS-B
Mon 01:45:47 AM 41.2580 23.5840 333° Northwest 432 497 36,000  Level FlightAware ADS-B
Mon 01:46:22 AM 41.3230 23.5410 334° Northwest 433 498 36,000  Level FlightAware ADS-B
Mon 01:46:57 AM 41.3790 23.5040 334° Northwest 435 501 36,000  Level FlightAware ADS-B
Mon 01:47:32 AM 41.4460 23.4590 333° Northwest 435 501 36,000  Level FlightAware ADS-B
Mon 01:48:07 AM 41.5110 23.4150 333° Northwest 435 501 36,000  Level FlightAware ADS-B
Mon 01:48:47 AM 41.5840 23.3660 333° Northwest 436 502 36,000  Level FlightAware ADS-B
Mon 01:49:19 AM 41.6360 23.3310 333° Northwest 436 502 36,000  Level FlightAware ADS-B
Mon 01:49:52 AM 41.7000 23.2870 333° Northwest 438 504 36,000 176 Level FlightAware ADS-B
Mon 01:50:27 AM 41.7630 23.2440 333° Northwest 440 506 36,200 640 Climbing FlightAware ADS-B
Mon 01:51:07 AM 41.8370 23.1940 333° Northwest 439 505 36,800 943 Climbing FlightAware ADS-B
Mon 01:51:37 AM 41.8910 23.1570 333° Northwest 437 503 37,300 923 Climbing FlightAware ADS-B
Mon 01:52:12 AM 41.9530 23.1140 333° Northwest 434 499 37,800 560 Climbing FlightAware ADS-B
Mon 01:52:52 AM 42.0210 23.0680 333° Northwest 435 501 38,000 150 Climbing FlightAware ADS-B
Mon 01:53:32 AM 42.0960 23.0160 333° Northwest 436 502 38,000  Level FlightAware ADS-B
Mon 01:54:07 AM 42.1590 22.9730 333° Northwest 438 504 38,000  Level FlightAware ADS-B
Mon 01:54:42 AM 42.2230 22.9290 333° Northwest 438 504 38,000  Level FlightAware ADS-B
Mon 01:55:17 AM 42.2840 22.8860 332° Northwest 437 503 38,000  Level FlightAware ADS-B
Mon 01:55:52 AM 42.3490 22.8420 333° Northwest 436 502 38,000  Level FlightAware ADS-B
Mon 01:56:27 AM 42.4120 22.7980 333° Northwest 435 501 38,000  Level FlightAware ADS-B
Mon 01:57:02 AM 42.4730 22.7550 333° Northwest 435 501 38,000  Level FlightAware ADS-B
Mon 01:57:37 AM 42.5360 22.7110 333° Northwest 432 497 38,000  Level FlightAware ADS-B
Mon 01:58:17 AM 42.6080 22.6610 333° Northwest 432 497 38,000  Level FlightAware ADS-B
Mon 01:58:53 AM 42.6700 22.6180 333° Northwest 430 495 38,000  Level FlightAware ADS-B
Mon 01:59:27 AM 42.7320 22.5740 332° Northwest 429 494 38,000  Level FlightAware ADS-B
Mon 02:00:02 AM 42.7920 22.5320 333° Northwest 432 497 38,000  Level FlightAware ADS-B
Mon 02:00:37 AM 42.8530 22.4850 331° Northwest 428 493 38,000  Level FlightAware ADS-B
Mon 02:01:12 AM 42.9120 22.4310 326° Northwest 428 493 38,000  Level FlightAware ADS-B
Mon 02:01:47 AM 42.9700 22.3780 326° Northwest 428 493 38,000  Level FlightAware ADS-B
Mon 02:02:22 AM 43.0200 22.3320 326° Northwest 430 495 38,000  Level FlightAware ADS-B
Mon 02:03:01 AM 43.0920 22.2650 326° Northwest 431 496 38,000  Level FlightAware ADS-B
Mon 02:03:33 AM 43.1450 22.2160 326° Northwest 431 496 38,000  Level FlightAware ADS-B
Mon 02:04:09 AM 43.2040 22.1610 326° Northwest 432 497 38,000  Level FlightAware ADS-B
Mon 02:04:44 AM 43.2620 22.1070 326° Northwest 434 499 38,000  Level FlightAware ADS-B
Mon 02:05:21 AM 43.3230 22.0500 326° Northwest 438 504 38,000  Level FlightAware ADS-B
Mon 02:05:53 AM 43.3780 21.9990 326° Northwest 442 509 38,000  Level FlightAware ADS-B
Mon 02:06:29 AM 43.4380 21.9430 326° Northwest 446 513 38,000  Level FlightAware ADS-B
Mon 02:07:05 AM 43.5000 21.8850 326° Northwest 448 516 38,000  Level FlightAware ADS-B
Mon 02:07:37 AM 43.5560 21.8320 326° Northwest 449 517 38,000  Level FlightAware ADS-B
Mon 02:08:13 AM 43.6180 21.7740 326° Northwest 450 518 38,000  Level FlightAware ADS-B
Mon 02:08:49 AM 43.6780 21.7160 325° Northwest 451 519 38,000  Level FlightAware ADS-B
Mon 02:09:23 AM 43.7380 21.6600 326° Northwest 451 519 38,000  Level FlightAware ADS-B
Mon 02:10:00 AM 43.7990 21.6020 326° Northwest 452 520 38,000  Level FlightAware ADS-B
Mon 02:10:36 AM 43.8610 21.5420 325° Northwest 452 520 38,000  Level FlightAware ADS-B
Mon 02:11:23 AM 43.9450 21.4630 326° Northwest 453 521 38,000  Level FlightAware ADS-B
Mon 02:11:59 AM 44.0050 21.4050 325° Northwest 454 522 38,000  Level FlightAware ADS-B
Mon 02:12:33 AM 44.0640 21.3480 325° Northwest 453 521 38,000  Level FlightAware ADS-B
Mon 02:13:05 AM 44.1200 21.2940 325° Northwest 453 521 38,000  Level FlightAware ADS-B
Mon 02:13:43 AM 44.1850 21.2320 326° Northwest 453 521 38,000  Level FlightAware ADS-B
Mon 02:14:19 AM 44.2450 21.1740 325° Northwest 453 521 38,000  Level FlightAware ADS-B
Mon 02:14:51 AM 44.3000 21.1200 325° Northwest 453 521 38,000  Level FlightAware ADS-B
Mon 02:15:27 AM 44.3630 21.0590 325° Northwest 453 521 38,000  Level FlightAware ADS-B
Mon 02:16:04 AM 44.4260 20.9970 325° Northwest 454 522 38,000  Level FlightAware ADS-B
Mon 02:16:40 AM 44.4890 20.9350 325° Northwest 455 524 38,000  Level FlightAware ADS-B
Mon 02:17:12 AM 44.5440 20.8820 326° Northwest 455 524 38,000  Level FlightAware ADS-B
Mon 02:17:48 AM 44.6070 20.8200 325° Northwest 457 526 38,000  Level FlightAware ADS-B
Mon 02:18:24 AM 44.6690 20.7590 325° Northwest 456 525 38,000  Level FlightAware ADS-B
Mon 02:18:58 AM 44.7290 20.7000 325° Northwest 456 525 38,000  Level FlightAware ADS-B
Mon 02:19:34 AM 44.7890 20.6400 325° Northwest 455 524 38,000  Level FlightAware ADS-B
Mon 02:20:06 AM 44.8430 20.5860 325° Northwest 453 521 38,000  Level FlightAware ADS-B
Mon 02:20:46 AM 44.9130 20.5170 325° Northwest 452 520 38,000  Level FlightAware ADS-B
Mon 02:21:18 AM 44.9660 20.4630 324° Northwest 452 520 38,000  Level FlightAware ADS-B
Mon 02:21:54 AM 45.0280 20.4010 325° Northwest 452 520 38,000  Level FlightAware ADS-B
Mon 02:22:30 AM 45.0900 20.3390 325° Northwest 452 520 38,000  Level FlightAware ADS-B
Mon 02:23:02 AM 45.1450 20.2840 325° Northwest 451 519 38,000  Level FlightAware ADS-B
Mon 02:23:35 AM 45.1940 20.2350 325° Northwest 450 518 38,000  Level FlightAware ADS-B
Mon 02:24:15 AM 45.2630 20.1640 324° Northwest 450 518 38,000  Level FlightAware ADS-B
Mon 02:24:50 AM 45.3270 20.0990 324° Northwest 449 517 38,000  Level FlightAware ADS-B
Mon 02:25:20 AM 45.3730 20.0520 324° Northwest 448 516 38,000  Level FlightAware ADS-B
Mon 02:25:56 AM 45.4370 19.9880 325° Northwest 442 509 38,000  Level FlightAware ADS-B
Mon 02:26:32 AM 45.4960 19.9270 324° Northwest 442 509 38,000  Level FlightAware ADS-B
Mon 02:27:07 AM 45.5550 19.8670 325° Northwest 442 509 38,000  Level FlightAware ADS-B
Mon 02:27:42 AM 45.6080 19.8120 324° Northwest 442 509 38,000  Level FlightAware ADS-B
Mon 02:28:17 AM 45.6650 19.7530 324° Northwest 444 511 38,000  Level FlightAware ADS-B
Mon 02:29:00 AM 45.7470 19.6680 324° Northwest 450 518 38,000  Level FlightAware ADS-B
Mon 02:29:30 AM 45.7940 19.6210 325° Northwest 451 519 38,000  Level FlightAware ADS-B
Mon 02:30:11 AM 45.8610 19.5500 324° Northwest 444 511 38,000  Level FlightAware ADS-B
Mon 02:30:48 AM 45.9260 19.4830 324° Northwest 444 511 38,000  Level FlightAware ADS-B
Mon 02:31:20 AM 45.9820 19.4250 324° Northwest 450 518 38,000  Level FlightAware ADS-B
Mon 02:31:56 AM 46.0420 19.3610 323° Northwest 449 517 38,000  Level FlightAware ADS-B
Mon 02:32:26 AM 46.0900 19.3060 322° Northwest 439 505 38,000  Level FlightAware ADS-B
Mon 02:33:11 AM 46.1560 19.2270 320° Northwest 439 505 38,000  Level FlightAware ADS-B
Mon 02:33:51 AM 46.2230 19.1450 320° Northwest 446 513 38,000  Level FlightAware ADS-B
Mon 02:34:26 AM 46.2780 19.0790 320° Northwest 447 514 38,000  Level FlightAware ADS-B
Mon 02:35:11 AM 46.3500 18.9900 320° Northwest 447 514 38,000  Level FlightAware ADS-B
Mon 02:35:46 AM 46.4050 18.9230 320° Northwest 447 514 38,000  Level FlightAware ADS-B
Mon 02:36:21 AM 46.4620 18.8540 320° Northwest 448 516 38,000  Level FlightAware ADS-B
Mon 02:36:56 AM 46.5170 18.7860 320° Northwest 447 514 38,000  Level FlightAware ADS-B
Mon 02:37:31 AM 46.5720 18.7190 320° Northwest 447 514 38,000  Level FlightAware ADS-B
Mon 02:38:04 AM 46.6240 18.6550 320° Northwest 442 509 38,000  Level FlightAware ADS-B
Mon 02:38:41 AM 46.6800 18.5850 319° Northwest 433 498 38,000  Level FlightAware ADS-B
Mon 02:39:11 AM 46.7270 18.5260 319° Northwest 432 497 38,000  Level FlightAware ADS-B
Mon 02:39:51 AM 46.7870 18.4520 320° Northwest 432 497 38,000  Level FlightAware ADS-B
Mon 02:40:31 AM 46.8500 18.3730 319° Northwest 430 495 38,000  Level FlightAware ADS-B
Mon 02:41:07 AM 46.9050 18.3040 319° Northwest 428 493 38,000  Level FlightAware ADS-B
Mon 02:41:42 AM 46.9580 18.2370 319° Northwest 427 491 38,000  Level FlightAware ADS-B
Mon 02:42:17 AM 47.0100 18.1720 320° Northwest 427 491 38,000  Level FlightAware ADS-B
Mon 02:42:52 AM 47.0650 18.1030 319° Northwest 427 491 38,000  Level FlightAware ADS-B
Mon 02:43:27 AM 47.1170 18.0360 319° Northwest 426 490 38,000  Level FlightAware ADS-B
Mon 02:44:02 AM 47.1700 17.9690 319° Northwest 426 490 38,000  Level FlightAware ADS-B
Mon 02:44:35 AM 47.2210 17.9040 319° Northwest 431 496 38,000  Level FlightAware ADS-B
Mon 02:45:10 AM 47.2730 17.8370 319° Northwest 432 497 38,000  Level FlightAware ADS-B
Mon 02:45:47 AM 47.3290 17.7660 319° Northwest 435 501 38,000  Level FlightAware ADS-B
Mon 02:46:22 AM 47.3820 17.6980 319° Northwest 435 501 38,000  Level FlightAware ADS-B
Mon 02:46:57 AM 47.4350 17.6300 319° Northwest 436 502 38,000  Level FlightAware ADS-B
Mon 02:47:32 AM 47.4880 17.5620 319° Northwest 437 503 38,000  Level FlightAware ADS-B
Mon 02:48:07 AM 47.5410 17.4930 319° Northwest 438 504 38,000  Level FlightAware ADS-B
Mon 02:48:42 AM 47.5940 17.4240 319° Northwest 439 505 38,000  Level FlightAware ADS-B
Mon 02:49:17 AM 47.6480 17.3550 319° Northwest 440 506 38,000  Level FlightAware ADS-B
Mon 02:49:52 AM 47.7030 17.2880 321° Northwest 444 511 38,000  Level FlightAware ADS-B
Mon 02:50:27 AM 47.7590 17.2220 322° Northwest 443 510 38,000  Level FlightAware ADS-B
Mon 02:51:02 AM 47.8140 17.1560 321° Northwest 442 509 38,000  Level FlightAware ADS-B
Mon 02:51:37 AM 47.8690 17.0890 321° Northwest 443 510 38,000  Level FlightAware ADS-B
Mon 02:52:12 AM 47.9250 17.0210 321° Northwest 442 509 38,000  Level FlightAware ADS-B
Mon 02:52:47 AM 47.9790 16.9550 321° Northwest 438 504 38,000  Level FlightAware ADS-B
Mon 02:53:22 AM 48.0330 16.8880 320° Northwest 434 499 38,000  Level FlightAware ADS-B
Mon 02:53:57 AM 48.0870 16.8220 321° Northwest 434 499 38,000  Level FlightAware ADS-B
Mon 02:54:32 AM 48.1410 16.7550 320° Northwest 434 499 38,000  Level FlightAware ADS-B
Mon 02:55:07 AM 48.1910 16.6940 321° Northwest 433 498 38,000  Level FlightAware ADS-B
Mon 02:55:42 AM 48.2500 16.6220 321° Northwest 432 497 38,000  Level FlightAware ADS-B
Mon 02:56:17 AM 48.3030 16.5550 320° Northwest 431 496 38,000  Level FlightAware ADS-B
Mon 02:56:52 AM 48.3560 16.4900 321° Northwest 430 495 38,000  Level FlightAware ADS-B
Mon 02:57:27 AM 48.4090 16.4230 320° Northwest 429 494 38,000  Level FlightAware ADS-B
Mon 02:58:02 AM 48.4620 16.3570 320° Northwest 427 491 38,000  Level FlightAware ADS-B
Mon 02:58:37 AM 48.5150 16.2910 320° Northwest 425 489 38,000  Level FlightAware ADS-B
Mon 02:59:12 AM 48.5670 16.2260 320° Northwest 423 487 38,000  Level FlightAware ADS-B
Mon 02:59:47 AM 48.6190 16.1590 320° Northwest 422 486 38,000  Level FlightAware ADS-B
Mon 03:00:03 AM 48.6448 16.1269 321° Northwest 420 483 38,000  Level FlightAware ADS-B (EDDM / MUC)
Mon 03:00:36 AM 48.6936 16.0650 320° Northwest 421 484 38,000  Level FlightAware ADS-B (EDDM / MUC)
Mon 03:01:34 AM 48.7790 15.9570 320° Northwest 425 489 38,000  Level FlightAware ADS-B
Mon 03:02:00 AM 48.8204 15.9043 320° Northwest 423 487 38,000  Level FlightAware ADS-B (EDDM / MUC)
Mon 03:02:38 AM 48.8820 15.8400 326° Northwest 439 505 38,000  Level FlightAware ADS-B (EGOD)
Mon 03:03:10 AM 48.9420 15.8030 338° Northwest 443 510 38,000  Level FlightAware ADS-B (EGOD)
Mon 03:03:48 AM 49.0150 15.7610 339° North 441 507 38,000  Level FlightAware ADS-B (EGOD)
Mon 03:04:22 AM 49.0800 15.7250 340° North 440 506 38,000  Level FlightAware ADS-B (EGOD)
Mon 03:04:32 AM 48.6820 16.0797 149° Southeast 440 506 38,000  Level FlightAware ADS-B
Mon 03:05:05 AM 49.1629 15.6770 331° Northwest 439 505 38,000  Level FlightAware ADS-B
Mon 03:05:37 AM 49.2216 15.6434 340° North 437 503 38,000  Level FlightAware ADS-B
Mon 03:06:08 AM 49.2820 15.6090 340° North 435 501 38,000  Level FlightAware ADS-B (EGOD)
Mon 03:06:18 AM 49.2995 15.5985 339° North 435 501 38,000  Level FlightAware ADS-B
Mon 03:06:54 AM 49.3689 15.5583 339° North 434 499 38,000  Level FlightAware ADS-B
Mon 03:07:26 AM 49.4273 15.5245 339° North 433 498 38,000  Level FlightAware ADS-B
Mon 03:08:16 AM 49.5205 15.4706 339° North 431 496 38,000  Level FlightAware ADS-B
Mon 03:09:05 AM 49.6119 15.4173 339° North 430 495 38,000  Level FlightAware ADS-B
Mon 03:09:36 AM 49.6703 15.3830 339° North 432 497 38,000  Level FlightAware ADS-B
Mon 03:10:06 AM 49.7257 15.3505 339° North 435 501 38,000  Level FlightAware ADS-B
Mon 03:10:47 AM 49.8010 15.3060 339° North 438 504 38,000  Level FlightAware ADS-B
Mon 03:10:55 AM 49.8038 15.3047 343° North 438 504 38,000  Level FlightAware ADS-B
Mon 03:11:27 AM 49.8793 15.2605 339° North 440 506 38,000  Level FlightAware ADS-B
Mon 03:12:07 AM 49.9556 15.2154 339° North 439 505 38,000  Level FlightAware ADS-B
Mon 03:12:37 AM 50.0109 15.1826 339° North 439 505 38,000  Level FlightAware ADS-B
Mon 03:13:09 AM 50.0700 15.1480 339° North 439 505 38,000  Level FlightAware ADS-B
Mon 03:13:12 AM 50.0779 15.1427 337° Northwest 439 505 38,000  Level FlightAware ADS-B
Mon 03:13:42 AM 50.1330 15.1090 339° North 441 507 38,000  Level FlightAware ADS-B
Mon 03:14:15 AM 50.1940 15.0730 339° North 442 509 38,000  Level FlightAware ADS-B
Mon 03:14:53 AM 50.2670 15.0290 339° North 442 509 38,000  Level FlightAware ADS-B
Mon 03:15:05 AM 50.2812 15.0208 340° North 443 510 38,000  Level FlightAware ADS-B
Mon 03:15:36 AM 50.3446 14.9827 339° North 443 510 38,000  Level FlightAware ADS-B
Mon 03:16:16 AM 50.4275 14.9327 339° North 439 505 38,000  Level FlightAware ADS-B
Mon 03:16:56 AM 50.5047 14.8860 339° North 435 501 38,000  Level FlightAware ADS-B
Mon 03:17:27 AM 50.5563 14.8548 339° North 435 501 38,000 -423 Level FlightAware ADS-B
Mon 03:18:07 AM 50.6360 14.8060 339° North 436 502 37,500 -857 Descending FlightAware ADS-B
Mon 03:18:37 AM 50.6928 14.7710 339° North 437 503 37,000 -943 Descending FlightAware ADS-B
Mon 03:19:17 AM 50.7664 14.7261 339° North 428 493 36,400 -811 Descending FlightAware ADS-B
Mon 03:19:51 AM 50.8285 14.6880 339° North 416 479 36,000 -282 Descending FlightAware ADS-B
Mon 03:20:42 AM 50.9180 14.6330 339° North 411 473 36,000  Level FlightAware ADS-B
Mon 03:21:19 AM 50.9860 14.6030 344° North 415 478 36,000 -696 Level FlightAware ADS-B
Mon 03:21:51 AM 51.0470 14.5830 348° North 421 484 35,200 -2,031 Descending FlightAware ADS-B
Mon 03:22:24 AM 51.1080 14.5640 349° North 427 491 33,800 -2,620 Descending FlightAware ADS-B
Mon 03:23:02 AM 51.1840 14.5500 353° North 427 491 32,100 -2,838 Descending FlightAware ADS-B
Mon 03:23:38 AM 51.2570 14.5390 355° North 429 494 30,300 -2,750 Descending FlightAware ADS-B
Mon 03:24:14 AM 51.3280 14.5280 354° North 422 486 28,800 -2,382 Descending FlightAware ADS-B
Mon 03:24:46 AM 51.3890 14.5190 355° North 416 479 27,600 -2,229 Descending FlightAware ADS-B
Mon 03:25:24 AM 51.4590 14.5080 354° North 410 472 26,200 -2,260 Descending FlightAware ADS-B
Mon 03:26:03 AM 51.5310 14.4970 355° North 404 465 24,700 -2,338 Descending FlightAware ADS-B
Mon 03:26:41 AM 51.6050 14.4850 354° North 396 456 23,200 -2,327 Descending FlightAware ADS-B
Mon 03:26:52 AM 51.6240 14.4760 344° North 393 452 22,800 -2,000 Descending FlightAware ADS-B
Mon 03:26:59 AM 51.6340 14.4680 334° Northwest 389 448 22,600 -1,800 Descending FlightAware ADS-B
Mon 03:27:12 AM 51.6500 14.4500 325° Northwest 386 444 22,200 -2,000 Descending FlightAware ADS-B
Mon 03:27:20 AM 51.6630 14.4300 316° Northwest 383 441 21,900 -2,233 Descending FlightAware ADS-B
Mon 03:27:55 AM 51.6980 14.3470 304° West 379 436 20,600 -2,270 Descending FlightAware ADS-B
Mon 03:28:34 AM 51.7340 14.2600 304° West 378 435 19,100 -2,486 Descending FlightAware ADS-B
Mon 03:29:05 AM 51.7650 14.1840 303° West 382 440 17,700 -2,328 Descending FlightAware ADS-B
Mon 03:29:41 AM 51.7990 14.1020 304° West 378 435 16,500 -2,055 Descending FlightAware ADS-B
Mon 03:30:18 AM 51.8350 14.0160 304° West 374 430 15,200 -2,025 Descending FlightAware ADS-B
Mon 03:31:01 AM 51.8770 13.9130 303° West 364 419 13,800 -1,976 Descending FlightAware ADS-B
Mon 03:31:43 AM 51.9150 13.8200 304° West 361 415 12,400 -2,000 Descending FlightAware ADS-B
Mon 03:32:13 AM 51.9430 13.7530 304° West 358 412 11,400 -1,254 Descending FlightAware ADS-B
Mon 03:32:50 AM 51.9760 13.6700 303° West 331 381 11,000 -1,233 Descending FlightAware ADS-B
Mon 03:33:26 AM 52.0050 13.5990 304° West 330 380 9,900 -1,837 Descending FlightAware ADS-B
Mon 03:33:39 AM 52.0160 13.5720 304° West 330 380 9,500 -1,313 Descending FlightAware ADS-B
Mon 03:33:58 AM 52.0360 13.5360 312° West 316 364 9,200 -977 Descending FlightAware ADS-B
Mon 03:34:22 AM 52.0590 13.4980 315° West 304 350 8,800 -1,333 Descending FlightAware ADS-B
Mon 03:34:43 AM 52.0800 13.4630 314° West 296 341 8,200 -1,459 Descending FlightAware ADS-B
Mon 03:34:59 AM 52.0960 13.4380 316° Northwest 294 338 7,900 -1,333 Descending FlightAware ADS-B
Mon 03:35:19 AM 52.1150 13.4080 316° Northwest 294 338 7,400 -1,385 Descending FlightAware ADS-B
Mon 03:35:38 AM 52.1350 13.3760 316° Northwest 292 336 7,000 -1,333 Descending FlightAware ADS-B
Mon 03:35:55 AM 52.1490 13.3530 315° West 291 335 6,600 -1,297 Descending FlightAware ADS-B
Mon 03:36:15 AM 52.1660 13.3260 316° Northwest 289 333 6,200 -1,350 Descending FlightAware ADS-B
Mon 03:36:35 AM 52.1860 13.2920 314° West 283 326 5,700 -1,463 Descending FlightAware ADS-B
Mon 03:36:56 AM 52.2060 13.2580 314° West 275 316 5,200 -1,333 Descending FlightAware ADS-B
Mon 03:37:20 AM 52.2280 13.2230 316° Northwest 272 313 4,700 -1,077 Descending FlightAware ADS-B
Mon 03:37:35 AM 52.2410 13.2000 313° West 264 304 4,500 -581 Descending FlightAware ADS-B
Mon 03:37:51 AM 52.2550 13.1790 317° Northwest 250 288 4,400 -273 Descending FlightAware ADS-B
Mon 03:37:57 AM 52.2600 13.1750 334° Northwest 244 281 4,400 -400 Level FlightAware ADS-B
Mon 03:38:06 AM 52.2690 13.1710 345° North 227 261 4,300 -923 Descending FlightAware ADS-B
Mon 03:38:36 AM 52.2930 13.1910 27° Northeast 181 208 3,800 -977 Descending FlightAware ADS-B
Mon 03:38:49 AM 52.2990 13.2040 53° Northeast 176 203 3,600 -833 Descending FlightAware ADS-B
Mon 03:39:12 AM 52.3070 13.2310 64° Northeast 165 190 3,300 -923 Descending FlightAware ADS-B
Mon 03:39:28 AM 52.3120 13.2500 67° East 160 184 3,000 -947 Descending FlightAware ADS-B
Mon 03:39:50 AM 52.3170 13.2740 71° East 154 177 2,700 -727 Descending FlightAware ADS-B
Mon 03:40:01 AM 52.3200 13.2860 68° East 151 174 2,600 -632 Descending FlightAware ADS-B
Mon 03:40:28 AM 52.3270 13.3140 68° East 143 165 2,300 -789 Descending FlightAware ADS-B
Mon 03:40:39 AM 52.3290 13.3240 72° East 138 159 2,100 -909 Descending FlightAware ADS-B
Mon 03:41:01 AM 52.3340 13.3440 68° East 133 153 1,800 -750 Descending FlightAware ADS-B
Mon 03:41:11 AM 52.3370 13.3550 66° East 131 151 1,700 -563 Descending FlightAware ADS-B
Mon 03:41:33 AM 52.3410 13.3730 70° East 130 150 1,500 -632 Descending FlightAware ADS-B
Mon 03:41:49 AM 52.3450 13.3890 68° East 131 151 1,300 -632 Descending FlightAware ADS-B
Mon 03:42:11 AM 52.3490 13.4080 71° East 134 154 1,100 -789 Descending FlightAware ADS-B
Mon 03:42:27 AM 52.3540 13.4250 64° Northeast 138 159 800 -882 Descending FlightAware ADS-B
Mon 03:42:45 AM 52.3570 13.4410 73° East 139 160 600 -714 Descending FlightAware ADS-B
Mon 03:43:09 AM 52.3630 13.4630 66° East 140 161 300 -367 Descending FlightAware ADS-B
Mon 03:43:34 AM 52.3680 13.4840 69° East 140 161 300  Level FlightAware ADS-B
Mon 03:46:00 AM 52.3800 13.5225 63° Northeast  Level Estimated
Mon 03:47:00 AM 52.3800 13.5225 North  Level Estimated
Mon 03:48:00 AM 52.3800 13.5225 North  Level Estimated
Mon 03:49:00 AM 52.3800 13.5225 North  Level Estimated
Mon 03:50:00 AM 52.3800 13.5225 North  Level Estimated
Mon 03:51:00 AM 52.3800 13.5225 North  Level Estimated
Mon 03:52:00 AM 52.3800 13.5225 North  Level Estimated
Mon 03:53:00 AM 52.3800 13.5225 North  Level Estimated
Mon 03:54:00 AM 52.3800 13.5225 North  Level Estimated

Login

Don't have an account? Register now (free) for customized features, flight alerts, and more!